Hidden Valley, Valles Caldera, New Mexico Weather observations

Data are for 10 minute period ending at time listed.
 Day   Time   Solar   Ave.   Ave.  Ave.  Vector  Max.   Baro.   Total    
  of    of     Rad.   Air    Rel.  Wind   Wind   Wind  Press.  Precip.   
Year   Day            Temp.  Hum.  Speed  Dir.   Gust                    
2014   (MST)  Kw/m2    F      %     mph   deg.    mph    mb.     in.     
-------------------------------------------------------------------------
 234    4:30   0.00   41.3    99    0.0   252     0.5   750.5    0.00 
 234    4:40   0.00   41.4    98    0.0     0     0.0   750.5    0.00 
 234    4:50   0.00   41.5    98    0.3   322     0.7   750.5    0.00 
 234    5:00   0.00   41.9    98    0.1   319     0.5   750.5    0.00 
 234    5:10   0.00   42.5    98    0.3   324     0.7   750.5    0.00 
 234    5:20   0.00   42.9    98    0.0   152     0.4   750.6    0.00 
 234    5:30   0.00   43.0    97    0.3    12     1.0   750.6    0.00 
 234    5:40   0.00   43.2    97    0.6   211     1.4   750.7    0.00 
 234    5:50   0.00   43.8    97    0.4   242     1.2   750.8    0.00 
 234    6:00   0.01   44.2    96    0.4     2     1.0   750.8    0.00 
 234    6:10   0.02   44.4    96    0.4   125     0.9   750.9    0.00 
 234    6:20   0.02   44.8    96    0.5    88     1.1   750.9    0.00 
 234    6:30   0.03   45.3    95    0.5   269     1.2   751.1    0.00 
 234    6:40   0.04   46.0    93    1.4   334     2.3   751.0    0.00 
 234    6:50   0.04   47.2    90    1.0   187     1.9   751.1    0.00 
 234    7:00   0.05   47.6    90    0.6    53     1.5   751.3    0.00 
 234    7:10   0.08   48.0    89    0.8    17     1.3   751.4    0.00 
 234    7:20   0.08   48.3    88    0.1   290     0.6   751.5    0.00 
 234    7:30   0.07   48.9    88    0.2   136     0.8   751.5    0.00 
 234    7:40   0.06   49.1    87    0.1   301     0.6   751.6    0.00 
 234    7:50   0.05   49.5    87    0.3    23     0.8   751.5    0.00 
 234    8:00   0.06   49.6    87    0.1     2     0.5   751.7    0.00 
 234    8:10   0.19   49.7    88    0.3    92     1.0   751.8    0.00 
 234    8:20   0.19   49.8    89    0.2   147     0.8   752.0    0.00 
 234    8:30   0.22   50.2    88    1.4   199     2.3   752.1    0.02 
 234    8:40   0.23   50.0    90    1.8   216     2.5   752.2    0.00 
 234    8:50   0.31   49.8    92    1.8   206     2.5   752.2    0.00 
 234    9:00   0.39   49.9    91    1.2   216     2.0   752.2    0.01 
 234    9:10   0.40   50.1    92    0.7   230     1.3   752.2    0.01 
 234    9:20   0.42   50.5    91    0.0     0     0.0   752.1    0.00 
 234    9:30   0.41   50.5    89    0.3   201     0.8   752.2    0.01 
 234    9:40   0.42   50.4    90    0.2   198     0.8   752.2    0.02 
 234    9:50   0.44   50.4    90    0.2   153     0.6   752.2    0.02 
 234   10:00   0.44   50.5    89    0.0   166     0.3   752.3    0.01 
 234   10:10   0.47   50.8    88    0.1    60     0.6   752.3    0.01 
 234   10:20   0.46   50.7    89    0.6   358     1.3   752.3    0.02 
 234   10:30   0.46   50.3    89    1.1   358     1.5   752.2    0.01 
 234   10:40   0.48   50.4    92    1.1     7     1.9   752.2    0.01 
 234   10:50   0.51   50.4    92    1.9     2     2.6   752.1    0.01 
 234   11:00   0.53   50.5    91    2.0   356     2.8   752.0    0.01 
 234   11:10   0.50   50.3    91    1.8   332     2.6   751.7    0.01 
 234   11:20   0.50   50.3    92    2.1   346     3.7   751.4    0.01 
 234   11:30   0.51   50.5    92    1.4    30     2.8   751.2    0.01 
 234   11:40   0.52   50.5    91    1.8    47     2.8   751.1    0.01 
 234   11:50   0.47   50.6    94    2.0    19     3.1   750.9    0.00 
 234   12:00   0.50   50.9    93    1.0    45     1.6   750.9    0.00 
 234   12:10   0.60   51.5    91    0.5   111     1.2   751.0    0.01 
 234   12:20   0.63   51.9    89    1.5    99     2.6   751.1    0.00 
 234   12:30   0.68   52.7    86    0.7   245     1.4   751.1    0.01 
 234   12:40   0.73   53.7    86    0.6   234     1.3   750.9    0.00 
 234   12:50   0.83   54.5    81    0.9   339     1.7   750.8    0.00 
 234   13:00   0.72   54.7    78    1.1   342     2.3   750.7    0.00 
 234   13:10   0.76   55.0    77    1.0   312     2.2   750.7    0.00 
 234   13:20   0.63   54.4    78    0.7   246     1.6   750.8    0.00 
 234   13:30   0.54   54.6    78    0.3   137     1.0   750.8    0.00 
 234   13:40   0.57   54.4    79    0.6   253     1.0   750.8    0.00 
 234   13:50   0.58   54.5    79    0.8   288     1.4   750.7    0.00 
 234   14:00   0.56   55.0    77    0.4   243     1.4   750.6    0.00 
 234   14:10   0.49   55.2    77    0.5   239     1.5   750.5    0.00 
 234   14:20   0.48   56.0    73    0.2   160     1.0   750.3    0.00 
 234   14:30   0.41   57.5    70    0.4   169     1.4   750.3    0.00 
 234   14:40   0.37   56.8    77    1.3   205     2.9   750.3    0.00 
 234   14:50   0.26   55.9    80    1.4   188     2.4   750.2    0.00 
 234   15:00   0.18   55.4    79    1.0   193     1.9   750.2    0.00 
 234   15:10   0.15   55.0    82    1.4   164     2.3   750.2    0.00 
 234   15:20   0.17   55.0    82    1.4   169     2.2   750.1    0.00 
 234   15:30   0.15   54.9    82    1.2   167     2.4   750.1    0.00 
 234   15:40   0.07   54.5    83    1.2   166     2.0   750.1    0.00 
 234   15:50   0.04   53.6    86    1.8   184     3.0   750.1    0.00 
 234   16:00   0.04   53.0    89    1.2   220     2.1   750.0    0.01 
 234   16:10   0.25   53.0    90    0.5   203     1.6   749.8    0.00 
 234   16:20   0.65   54.5    87    1.2   231     2.1   749.7    0.00 
 234   16:30   0.47   55.2    83    0.5   214     1.4   749.7    0.00 
 234   16:40   0.47   55.1    84    1.1   284     2.0   749.7    0.00 
 234   16:50   0.42   54.3    86    0.7   260     1.4   749.7    0.00 
 234   17:00   0.46   53.4    88    1.2   268     1.8   749.7    0.00 
 234   17:10   0.50   52.7    90    0.8   271     1.6   749.7    0.00 
 234   17:20   0.44   53.2    90    0.5   255     1.0   749.6    0.00 
 234   17:30   0.39   51.7    89    0.3   244     1.0   749.7    0.00 
 234   17:40   0.41   51.0    91    0.9   214     1.8   749.7    0.00 
 234   17:50   0.41   50.6    94    1.5   232     2.1   749.9    0.00 
 234   18:00   0.40   51.2    94    2.0   222     5.1   750.0    0.00 
 234   18:10   0.40   52.9    89    2.2   228     4.3   750.1    0.00 
 234   18:20   0.39   53.0    91    2.3   210     4.7   750.2    0.00 
 234   18:30   0.37   52.8    93    2.6   210     5.1   750.3    0.00 
 234   18:40   0.37   52.5    93    2.0   217     4.7   750.3    0.00 
 234   18:50   0.38   52.3    93    2.3   205     3.8   750.3    0.01 
 234   19:00   0.38   52.2    92    1.4   220     4.0   750.3    0.00 
 234   19:10   0.38   52.0    92    1.3   197     2.5   750.2    0.00 
 234   19:20   0.35   51.5    91    1.5   214     4.1   750.0    0.00 
 234   19:30   0.35   51.1    92    0.7   173     1.1   749.9    0.00 
 234   19:40   0.36   50.1    93    0.6   294     1.4   749.8    0.00 
 234   19:50   0.36   48.7    95    1.1   336     1.7   749.8    0.00 
 234   20:00   0.35   48.2    96    0.2   318     0.7   749.8    0.00 
 234   20:10   0.35   47.9    96    1.1   224     2.1   749.9    0.00 
 234   20:20   0.36   46.7    96    1.0   118     1.8   750.0    0.00 
 234   20:30   0.35   45.9    96    0.6   238     2.3   749.9    0.00 
 234   20:40   0.36   45.2    97    0.9   161     2.1   750.0    0.00 
 234   20:50   0.36   44.2    97    0.9   186     1.7   749.9    0.00 
 234   21:00   0.35   44.3    98    0.5   241     1.0   750.0    0.00 
 234   21:10   0.35   43.9    97    0.2   227     0.9   750.0    0.00 
 234   21:20   0.35   43.9    98    1.0   200     1.7   750.0    0.00 
 234   21:30   0.35   44.0    98    1.3   224     2.4   750.1    0.00 
 234   21:40   0.35   42.0    97    0.6   269     1.6   750.1    0.00 
 234   21:50   0.36   41.0    97    0.7     7     1.2   750.0    0.00 
 234   22:00   0.35   38.6    97    0.4    28     1.0   750.0    0.00 
 234   22:10   0.36   37.8    98    1.0   349     1.9   750.1    0.00 
 234   22:20   0.37   39.3    99    0.6   238     0.9   750.1    0.00 
 234   22:30   0.36   39.7    99    0.7   172     1.2   750.1    0.00 
 234   22:40   0.37   39.9    99    0.5    85     1.2   750.2    0.00 
 234   22:50   0.38   38.9    99    0.1   119     0.6   750.2    0.00 
 234   23:00   0.37   38.6    99    0.3   309     0.8   750.3    0.00 
 234   23:10   0.37   38.0    99    0.0     0     0.0   750.3    0.00 
 234   23:20   0.37   37.7    99    0.3   144     0.6   750.2    0.00 
 234   23:30   0.39   37.3   100    0.4   344     0.8   750.2    0.00 
 234   23:40   0.39   36.9   100    0.2   359     1.0   750.2    0.00 
 234   23:50   0.40   36.5   100    0.2    26     0.7   750.2    0.00 
 235    0:00   0.39   35.7   100    0.4   360     1.3   750.2    0.00 
 235    0:10   0.39   36.0   100    0.9   330     1.3   750.3    0.00 
 235    0:20   0.43   36.2   100    0.4   347     0.9   750.2    0.00 
 235    0:30   0.42   37.1   100    0.4   135     1.2   750.2    0.00 
 235    0:40   0.43   37.5   100    0.3   149     1.1   750.2    0.00 
 235    0:50   0.41   38.1   100    0.3    91     1.0   750.2    0.00 
 235    1:00   0.40   38.7   100    0.5   230     1.2   750.1    0.00 
 235    1:10   0.39   39.3   100    0.2   153     0.7   750.1    0.00 
 235    1:20   0.38   39.4   100    0.0   350     0.5   750.0    0.00 
 235    1:30   0.05   39.0   100    0.5   320     0.9   750.0    0.00 
 235    1:40   0.00   38.5   100    0.5   344     0.9   750.1    0.00 
 235    1:50   0.00   38.4   100    0.0   342     0.4   750.1    0.00 
 235    2:00   0.00   38.4   100    0.1    44     1.0   750.2    0.00 
 235    2:10   0.00   38.2   100    0.8    43     1.0   750.2    0.00 
 235    2:20   0.00   37.9   100    0.7    58     1.1   750.2    0.00 
 235    2:30   0.00   37.7   100    0.1   125     0.7   750.2    0.00 
 235    2:40   0.00   37.6   100    0.1   267     0.6   750.2    0.00 
 235    2:50   0.00   37.6   100    0.1   269     0.7   750.1    0.00 
 235    3:00   0.00   37.4   100    0.0     0     0.0   750.0    0.00 
 235    3:10   0.00   37.2   100    0.0     0     0.0   750.0    0.00 
 235    3:20   0.06   37.1   100    0.0     0     0.0   750.0    0.00 
 235    3:30   0.01   36.9   100    0.0   152     0.2   750.0    0.00 
 235    3:40   0.46   36.8   100    0.1    86     0.5   749.9    0.00 
 235    3:50   0.47   36.7   100    0.8    27     1.4   749.9    0.00 
 235    4:00   0.47   36.5   100    0.3    36     0.9   749.9    0.00 
 235    4:10   0.47   36.2   100    0.4   318     1.1   749.9    0.00 
 235    4:20   0.47   36.1   100    0.0   292     0.5   749.9    0.00 

Return to Hidden Valley, Valles Caldera graphs page.


Western Regional Climate Center,wrcc@dri.edu